Cincinnati, Ohio
Traffic Map
Current Weather Conditions
Cincinnati, Ohio
Clear
Clear
79°
Feels Like: 82°
Wind Chill: 79° Ceiling: Unl
Heat Index: 82° Visibility: 10mi
Dew Point: 72° Wind: 5mph
Humidity: 79% Direction: 190° (S)
Pressure: 30.17in Gusts: 0mph
Raw Report DataKLUK 211353Z 19004KT 10SM CLR 26/22 A3017 RMK AO2 SLP211 T02610222
Traffic Incident Summary
Active as of:
Severity:
Category:
InformationThere was an issue retrieving the traffic information for this location. Please try a different location or try again shortly.
Advertisements